Time;durP1;ratioP1;P1;durP2;ratioP2;P2;SDS_P1;SDS_P2;PMS_P1;PMS_P2;Temp;Humidity;BMP_temperature;BMP_pressure;BME280_temperature;BME280_humidity;BME280_pressure;Samples;Min_cycle;Max_cycle;Signal;HPM_P1;HPM_P2
2023/10/31 00:00:31;;;;;;;4.27;3.63;;;;;;;;;;5116125;28;20485;-59
2023/10/31 00:02:58;;;;;;;3.90;3.50;;;;;;;;;;5116003;28;20812;-60
2023/10/31 00:05:25;;;;;;;4.53;3.77;;;;;;;;;;5116212;28;20901;-60
2023/10/31 00:07:53;;;;;;;5.83;3.97;;;;;;;;;;5116096;28;20545;-60
2023/10/31 00:10:20;;;;;;;6.10;4.17;;;;;;;;;;5116063;28;20496;-60
2023/10/31 00:12:47;;;;;;;7.97;4.60;;;;;;;;;;5115856;28;21004;-60
2023/10/31 00:15:14;;;;;;;4.20;3.80;;;;;;;;;;5115813;28;20482;-60
2023/10/31 00:17:42;;;;;;;6.20;4.00;;;;;;;;;;5115727;28;20445;-60
2023/10/31 00:20:09;;;;;;;7.50;4.93;;;;;;;;;;5115796;28;20574;-59
2023/10/31 00:22:36;;;;;;;5.70;4.53;;;;;;;;;;5115736;28;21016;-60
2023/10/31 00:25:04;;;;;;;4.80;3.60;;;;;;;;;;5115682;28;20448;-60
2023/10/31 00:27:31;;;;;;;4.13;3.83;;;;;;;;;;5115602;28;20537;-60
2023/10/31 00:29:58;;;;;;;6.67;4.07;;;;;;;;;;5115770;28;20525;-60
2023/10/31 00:32:26;;;;;;;5.00;4.50;;;;;;;;;;5114525;28;20474;-60
2023/10/31 00:34:53;;;;;;;4.20;3.90;;;;;;;;;;5115548;28;20441;-59
2023/10/31 00:37:19;;;;;;;6.10;3.87;;;;;;;;;;5115447;28;20539;-60
2023/10/31 00:39:46;;;;;;;4.20;3.80;;;;;;;;;;5115356;28;20477;-60
2023/10/31 00:42:15;;;;;;;5.80;4.43;;;;;;;;;;5115311;28;20953;-60
2023/10/31 00:44:42;;;;;;;5.50;3.90;;;;;;;;;;5115060;28;20476;-60
2023/10/31 00:47:09;;;;;;;5.67;4.17;;;;;;;;;;5115349;28;20448;-60
2023/10/31 00:49:36;;;;;;;5.33;4.83;;;;;;;;;;5115223;28;20880;-60
2023/10/31 00:52:04;;;;;;;4.93;4.10;;;;;;;;;;5115139;28;20478;-60
2023/10/31 00:54:31;;;;;;;4.77;4.30;;;;;;;;;;5115078;28;20441;-60
2023/10/31 00:56:59;;;;;;;4.13;3.80;;;;;;;;;;5115001;28;20430;-60
2023/10/31 00:59:27;;;;;;;4.87;3.87;;;;;;;;;;5115099;28;20473;-60
2023/10/31 01:01:54;;;;;;;4.27;3.83;;;;;;;;;;5115098;28;20490;-60
2023/10/31 01:04:21;;;;;;;5.80;4.00;;;;;;;;;;5114948;28;20549;-60
2023/10/31 01:06:48;;;;;;;4.00;3.70;;;;;;;;;;5115064;28;20448;-60
2023/10/31 01:09:15;;;;;;;4.17;3.80;;;;;;;;;;5114682;28;20579;-60
2023/10/31 01:11:42;;;;;;;4.63;4.23;;;;;;;;;;5114691;28;20872;-60
2023/10/31 01:14:09;;;;;;;5.17;4.30;;;;;;;;;;5115062;28;20448;-60
2023/10/31 01:16:37;;;;;;;5.37;4.97;;;;;;;;;;5114535;28;20936;-60
2023/10/31 01:19:04;;;;;;;5.23;4.30;;;;;;;;;;5114843;28;20452;-60
2023/10/31 01:21:31;;;;;;;4.67;4.27;;;;;;;;;;5114590;28;20442;-60
2023/10/31 01:24:00;;;;;;;5.53;4.67;;;;;;;;;;5114389;28;20557;-60
2023/10/31 01:26:26;;;;;;;4.80;4.23;;;;;;;;;;5114313;28;20533;-60
2023/10/31 01:28:53;;;;;;;5.17;4.13;;;;;;;;;;5114613;28;20808;-60
2023/10/31 01:31:20;;;;;;;4.40;4.00;;;;;;;;;;5114401;28;20846;-60
2023/10/31 01:33:49;;;;;;;5.80;3.93;;;;;;;;;;5114313;28;20441;-60
2023/10/31 01:36:18;;;;;;;7.30;4.27;;;;;;;;;;5114238;28;20449;-59
2023/10/31 01:38:46;;;;;;;4.90;4.50;;;;;;;;;;5114123;28;20452;-59
2023/10/31 01:41:13;;;;;;;4.80;4.40;;;;;;;;;;5114268;28;20536;-60
2023/10/31 01:43:40;;;;;;;5.23;4.73;;;;;;;;;;5113772;28;20449;-59
2023/10/31 01:46:07;;;;;;;6.60;4.37;;;;;;;;;;5114216;28;20536;-59
2023/10/31 01:48:34;;;;;;;7.10;4.87;;;;;;;;;;5114103;28;20536;-59
2023/10/31 01:51:04;;;;;;;4.57;3.73;;;;;;;;;;5114003;28;20448;-59
2023/10/31 01:53:31;;;;;;;5.00;4.50;;;;;;;;;;5114075;28;20456;-59
2023/10/31 01:56:01;;;;;;;5.33;4.20;;;;;;;;;;5114346;28;20441;-59
2023/10/31 01:58:30;;;;;;;5.90;4.63;;;;;;;;;;5114201;28;20487;-59
2023/10/31 02:00:57;;;;;;;4.83;4.33;;;;;;;;;;5113829;28;20844;-59
2023/10/31 02:03:24;;;;;;;5.10;4.30;;;;;;;;;;5113783;28;20445;-59
2023/10/31 02:05:52;;;;;;;4.50;4.20;;;;;;;;;;5113700;28;20468;-60
2023/10/31 02:08:21;;;;;;;4.90;4.43;;;;;;;;;;5113875;28;20442;-59
2023/10/31 02:10:48;;;;;;;10.57;4.73;;;;;;;;;;5113750;28;20498;-60
2023/10/31 02:13:15;;;;;;;4.53;4.17;;;;;;;;;;5113693;28;20449;-59
2023/10/31 02:15:42;;;;;;;5.13;4.57;;;;;;;;;;5113667;28;20528;-60
2023/10/31 02:18:10;;;;;;;4.70;4.30;;;;;;;;;;5113520;28;20521;-60
2023/10/31 02:20:37;;;;;;;6.27;4.83;;;;;;;;;;5113389;28;20477;-59
2023/10/31 02:23:05;;;;;;;6.20;5.10;;;;;;;;;;5113499;28;20445;-59
2023/10/31 02:25:32;;;;;;;6.17;4.50;;;;;;;;;;5113703;28;20933;-60
2023/10/31 02:27:59;;;;;;;5.00;4.53;;;;;;;;;;5113513;28;20536;-59
2023/10/31 02:30:26;;;;;;;6.50;4.80;;;;;;;;;;5113473;28;20448;-59
2023/10/31 02:32:53;;;;;;;5.77;4.67;;;;;;;;;;5113364;28;20438;-59
2023/10/31 02:35:21;;;;;;;5.27;4.27;;;;;;;;;;5113528;28;20445;-60
2023/10/31 02:37:48;;;;;;;5.13;4.73;;;;;;;;;;5113333;28;20934;-59
2023/10/31 02:40:16;;;;;;;5.50;5.00;;;;;;;;;;5113294;28;20472;-59
2023/10/31 02:42:43;;;;;;;5.23;4.73;;;;;;;;;;5113343;28;20445;-59
2023/10/31 02:45:10;;;;;;;5.47;4.83;;;;;;;;;;5113131;28;20556;-59
2023/10/31 02:47:37;;;;;;;5.40;4.90;;;;;;;;;;5113210;28;20854;-59
2023/10/31 02:50:05;;;;;;;6.60;5.20;;;;;;;;;;5113237;28;21000;-59
2023/10/31 02:52:31;;;;;;;4.87;4.47;;;;;;;;;;5113337;28;20528;-59
2023/10/31 02:54:58;;;;;;;5.33;4.87;;;;;;;;;;5113101;28;20995;-59
2023/10/31 02:57:26;;;;;;;4.90;4.40;;;;;;;;;;5117400;28;20528;-60
2023/10/31 02:59:53;;;;;;;5.70;5.17;;;;;;;;;;5117155;28;20485;-59
2023/10/31 03:02:20;;;;;;;4.80;4.40;;;;;;;;;;5117693;28;20452;-59
2023/10/31 03:04:47;;;;;;;7.03;4.60;;;;;;;;;;5117117;28;20452;-60
2023/10/31 03:07:13;;;;;;;6.37;4.93;;;;;;;;;;5117506;28;20477;-59
2023/10/31 03:09:40;;;;;;;5.30;4.90;;;;;;;;;;5117144;28;20449;-59
2023/10/31 03:12:08;;;;;;;5.93;4.30;;;;;;;;;;5117000;28;20936;-59
2023/10/31 03:14:36;;;;;;;5.47;4.97;;;;;;;;;;5116946;28;20951;-60
2023/10/31 03:17:03;;;;;;;6.03;4.20;;;;;;;;;;5116917;28;20928;-59
2023/10/31 03:19:30;;;;;;;6.77;5.20;;;;;;;;;;5117102;28;20875;-59
2023/10/31 03:21:57;;;;;;;6.40;5.80;;;;;;;;;;5116855;28;20481;-59
2023/10/31 03:24:24;;;;;;;6.37;5.60;;;;;;;;;;5116926;28;20445;-59
2023/10/31 03:26:51;;;;;;;5.77;5.27;;;;;;;;;;5117257;28;20868;-59
2023/10/31 03:29:19;;;;;;;6.57;5.50;;;;;;;;;;5116691;28;20822;-59
2023/10/31 03:31:47;;;;;;;7.00;5.90;;;;;;;;;;5117082;28;20445;-59
2023/10/31 03:34:14;;;;;;;6.37;5.67;;;;;;;;;;5116734;28;20445;-59
2023/10/31 03:36:41;;;;;;;6.07;5.20;;;;;;;;;;5116879;28;20534;-59
2023/10/31 03:39:08;;;;;;;7.03;5.50;;;;;;;;;;5116584;28;20955;-59
2023/10/31 03:41:35;;;;;;;7.33;6.63;;;;;;;;;;5116353;28;20488;-59
2023/10/31 03:44:02;;;;;;;8.43;6.40;;;;;;;;;;5116549;28;20557;-59
2023/10/31 03:46:28;;;;;;;6.57;6.00;;;;;;;;;;5116552;28;20524;-59
2023/10/31 03:48:57;;;;;;;6.97;6.40;;;;;;;;;;5116402;28;21017;-60
2023/10/31 03:51:24;;;;;;;8.20;6.30;;;;;;;;;;5116410;28;20446;-59
2023/10/31 03:53:51;;;;;;;6.73;6.10;;;;;;;;;;5116475;28;20925;-59
2023/10/31 03:56:17;;;;;;;7.37;6.30;;;;;;;;;;5116155;28;20437;-60
2023/10/31 03:58:44;;;;;;;8.67;6.80;;;;;;;;;;5116329;28;20437;-59
2023/10/31 04:01:11;;;;;;;6.80;6.17;;;;;;;;;;5116186;28;20481;-59
2023/10/31 04:03:38;;;;;;;7.30;6.70;;;;;;;;;;5116162;28;20441;-60
2023/10/31 04:06:07;;;;;;;10.40;7.07;;;;;;;;;;5115894;28;20442;-60
2023/10/31 04:08:34;;;;;;;7.37;6.67;;;;;;;;;;5115902;28;20444;-59
2023/10/31 04:11:01;;;;;;;7.77;6.83;;;;;;;;;;5116125;28;20542;-59
2023/10/31 04:13:28;;;;;;;7.90;7.10;;;;;;;;;;5116081;28;20528;-59
2023/10/31 04:15:54;;;;;;;7.00;6.30;;;;;;;;;;5115922;28;20880;-60
2023/10/31 04:18:21;;;;;;;8.40;7.63;;;;;;;;;;5115867;28;20438;-60
2023/10/31 04:20:48;;;;;;;7.33;6.73;;;;;;;;;;5115679;28;20470;-59
2023/10/31 04:23:17;;;;;;;7.30;6.60;;;;;;;;;;5115623;28;20804;-60
2023/10/31 04:25:43;;;;;;;8.77;7.87;;;;;;;;;;5115817;28;20441;-60
2023/10/31 04:28:10;;;;;;;9.53;7.40;;;;;;;;;;5115728;28;20452;-59
2023/10/31 04:30:37;;;;;;;8.00;7.30;;;;;;;;;;5115678;28;21032;-60
2023/10/31 04:33:04;;;;;;;8.10;7.30;;;;;;;;;;5115537;28;20447;-59
2023/10/31 04:35:31;;;;;;;8.63;7.30;;;;;;;;;;5115477;28;20476;-60
2023/10/31 04:37:58;;;;;;;7.03;6.43;;;;;;;;;;5115249;28;20441;-60
2023/10/31 04:40:26;;;;;;;11.80;7.80;;;;;;;;;;5115432;28;20525;-59
2023/10/31 04:42:53;;;;;;;12.10;8.47;;;;;;;;;;5115426;28;20536;-60
2023/10/31 04:45:20;;;;;;;7.67;7.00;;;;;;;;;;5115056;28;20554;-59
2023/10/31 04:47:47;;;;;;;8.30;7.47;;;;;;;;;;5115215;28;20881;-60
2023/10/31 04:50:14;;;;;;;8.27;7.47;;;;;;;;;;5115058;28;20524;-59
2023/10/31 04:52:42;;;;;;;8.60;7.70;;;;;;;;;;5115032;28;20852;-60
2023/10/31 04:55:09;;;;;;;7.13;6.60;;;;;;;;;;5115158;28;20532;-59
2023/10/31 04:57:37;;;;;;;9.80;7.70;;;;;;;;;;5115145;28;20574;-60
2023/10/31 05:00:06;;;;;;;8.40;7.57;;;;;;;;;;5115072;28;20541;-59
2023/10/31 05:02:33;;;;;;;8.73;7.80;;;;;;;;;;5114816;28;20478;-60
2023/10/31 05:05:00;;;;;;;9.23;8.00;;;;;;;;;;5114804;28;20441;-60
2023/10/31 05:07:27;;;;;;;9.47;8.20;;;;;;;;;;5114980;28;20845;-60
2023/10/31 05:09:54;;;;;;;9.10;8.20;;;;;;;;;;5114855;28;20441;-60
2023/10/31 05:12:21;;;;;;;9.40;8.53;;;;;;;;;;5114834;28;20529;-60
2023/10/31 05:14:49;;;;;;;10.37;8.20;;;;;;;;;;5114716;28;20530;-60
2023/10/31 05:17:16;;;;;;;10.20;8.13;;;;;;;;;;5114618;28;20808;-61
2023/10/31 05:19:43;;;;;;;9.70;8.80;;;;;;;;;;5113847;28;20536;-60
2023/10/31 05:22:10;;;;;;;12.20;8.40;;;;;;;;;;5114807;28;20487;-60
2023/10/31 05:24:37;;;;;;;8.90;8.10;;;;;;;;;;5114823;28;20445;-60
2023/10/31 05:27:07;;;;;;;9.30;8.37;;;;;;;;;;5114583;28;20479;-60
2023/10/31 05:29:34;;;;;;;9.60;8.60;;;;;;;;;;5114356;28;20450;-60
2023/10/31 05:32:02;;;;;;;10.10;9.17;;;;;;;;;;5114239;28;20452;-60
2023/10/31 05:34:29;;;;;;;14.83;7.97;;;;;;;;;;5114386;28;20533;-60
2023/10/31 05:36:56;;;;;;;8.43;7.73;;;;;;;;;;5114373;28;20448;-60
2023/10/31 05:39:23;;;;;;;8.33;7.63;;;;;;;;;;5114256;28;20452;-60
2023/10/31 05:41:50;;;;;;;7.97;7.27;;;;;;;;;;5114324;28;20483;-60
2023/10/31 05:44:17;;;;;;;8.30;7.30;;;;;;;;;;5114052;28;20571;-60
2023/10/31 05:46:44;;;;;;;8.23;7.43;;;;;;;;;;5113942;28;20534;-59
2023/10/31 05:49:12;;;;;;;8.80;8.10;;;;;;;;;;5114106;28;20456;-59
2023/10/31 05:51:39;;;;;;;8.63;7.87;;;;;;;;;;5113957;28;20446;-59
2023/10/31 05:54:08;;;;;;;9.00;7.63;;;;;;;;;;5113963;28;20870;-60
2023/10/31 05:56:35;;;;;;;8.23;7.00;;;;;;;;;;5113871;28;20801;-59
2023/10/31 05:59:02;;;;;;;8.00;7.20;;;;;;;;;;5113754;28;20444;-59
2023/10/31 06:01:29;;;;;;;8.50;7.80;;;;;;;;;;5113953;28;20477;-59
2023/10/31 06:03:56;;;;;;;7.10;6.60;;;;;;;;;;5113846;28;20442;-58
2023/10/31 06:06:24;;;;;;;6.50;6.00;;;;;;;;;;5113850;28;20477;-59
2023/10/31 06:08:51;;;;;;;6.30;5.77;;;;;;;;;;5113752;28;20441;-60
2023/10/31 06:11:18;;;;;;;5.47;5.07;;;;;;;;;;5113586;28;20533;-60
2023/10/31 06:13:47;;;;;;;6.20;5.70;;;;;;;;;;5113516;28;20442;-60
2023/10/31 06:16:14;;;;;;;5.97;5.40;;;;;;;;;;5113727;28;20851;-59
2023/10/31 06:18:41;;;;;;;6.30;5.80;;;;;;;;;;5113415;28;20928;-59
2023/10/31 06:21:09;;;;;;;7.43;5.50;;;;;;;;;;5113524;28;20473;-59
2023/10/31 06:23:38;;;;;;;5.10;4.70;;;;;;;;;;5113425;28;20445;-60
2023/10/31 06:26:05;;;;;;;7.30;6.50;;;;;;;;;;5113378;28;20449;-60
2023/10/31 06:28:34;;;;;;;6.47;5.97;;;;;;;;;;5113331;28;20864;-59
2023/10/31 06:31:01;;;;;;;5.90;5.50;;;;;;;;;;5112503;28;20448;-60
2023/10/31 06:33:28;;;;;;;6.20;5.77;;;;;;;;;;5113360;28;20448;-59
2023/10/31 06:35:55;;;;;;;6.87;6.27;;;;;;;;;;5113376;28;20805;-59
2023/10/31 06:38:22;;;;;;;9.07;5.70;;;;;;;;;;5113324;28;20449;-60
2023/10/31 06:40:50;;;;;;;5.50;5.13;;;;;;;;;;5113064;28;20870;-59
2023/10/31 06:43:17;;;;;;;6.17;5.67;;;;;;;;;;5113451;28;20444;-60
2023/10/31 06:45:44;;;;;;;6.90;6.20;;;;;;;;;;5113381;28;20495;-59
2023/10/31 06:48:11;;;;;;;5.83;5.40;;;;;;;;;;5113292;28;20476;-59
2023/10/31 06:50:38;;;;;;;5.93;4.80;;;;;;;;;;5113236;28;20442;-59
2023/10/31 06:53:05;;;;;;;5.10;4.70;;;;;;;;;;5113135;28;20940;-60
2023/10/31 06:55:32;;;;;;;4.80;4.50;;;;;;;;;;5112955;28;20442;-59
2023/10/31 06:58:01;;;;;;;5.47;5.00;;;;;;;;;;5113244;28;20532;-60
2023/10/31 07:00:28;;;;;;;5.73;4.93;;;;;;;;;;5113477;28;20437;-60
2023/10/31 07:02:55;;;;;;;6.33;4.03;;;;;;;;;;5113012;28;20504;-60
2023/10/31 07:05:22;;;;;;;4.57;4.13;;;;;;;;;;5112938;28;20448;-60
2023/10/31 07:07:49;;;;;;;3.90;3.70;;;;;;;;;;5112797;28;20778;-59
2023/10/31 07:10:16;;;;;;;3.93;3.63;;;;;;;;;;5113148;28;20441;-59
2023/10/31 07:12:43;;;;;;;3.97;3.67;;;;;;;;;;5113205;28;20936;-60
2023/10/31 07:15:12;;;;;;;3.83;3.53;;;;;;;;;;5113011;28;20453;-60
2023/10/31 07:17:38;;;;;;;4.17;3.83;;;;;;;;;;5113173;28;20529;-60
2023/10/31 07:20:07;;;;;;;3.40;3.20;;;;;;;;;;5113089;28;20450;-59
2023/10/31 07:22:34;;;;;;;3.37;3.17;;;;;;;;;;5112598;28;20828;-60
2023/10/31 07:25:03;;;;;;;3.57;3.37;;;;;;;;;;5112505;28;20451;-60
2023/10/31 07:27:30;;;;;;;3.33;3.13;;;;;;;;;;5112758;28;20437;-59
2023/10/31 07:29:57;;;;;;;3.13;2.83;;;;;;;;;;5112945;28;20537;-59
2023/10/31 07:32:25;;;;;;;3.63;3.43;;;;;;;;;;5112852;28;20457;-60
2023/10/31 07:34:52;;;;;;;2.83;2.67;;;;;;;;;;5111988;28;20460;-60
2023/10/31 07:37:19;;;;;;;3.10;2.90;;;;;;;;;;5108079;28;20449;-59
2023/10/31 07:39:46;;;;;;;3.37;3.10;;;;;;;;;;5112045;28;20876;-59
2023/10/31 07:42:13;;;;;;;3.83;3.53;;;;;;;;;;5113930;28;20473;-59
2023/10/31 07:44:40;;;;;;;3.00;2.80;;;;;;;;;;5115656;28;20489;-59
2023/10/31 07:47:07;;;;;;;3.30;3.10;;;;;;;;;;5112924;28;20437;-59
2023/10/31 07:49:35;;;;;;;3.43;3.20;;;;;;;;;;5115537;28;20444;-59
2023/10/31 07:52:02;;;;;;;3.63;3.33;;;;;;;;;;5115619;28;20450;-59
2023/10/31 07:54:29;;;;;;;4.23;3.10;;;;;;;;;;5113674;28;20530;-59
2023/10/31 07:56:56;;;;;;;3.80;3.50;;;;;;;;;;5115416;28;20964;-58
2023/10/31 07:59:23;;;;;;;3.27;3.00;;;;;;;;;;5115925;28;20437;-59
2023/10/31 08:01:52;;;;;;;3.40;3.10;;;;;;;;;;5115865;28;20522;-61
2023/10/31 08:04:19;;;;;;;3.13;2.87;;;;;;;;;;5115823;28;20454;-59
2023/10/31 08:06:47;;;;;;;2.90;2.70;;;;;;;;;;5107749;28;20452;-61
2023/10/31 08:09:16;;;;;;;6.50;2.10;;;;;;;;;;5114906;28;20438;-58
2023/10/31 08:11:43;;;;;;;3.00;2.70;;;;;;;;;;5107090;28;20777;-60
2023/10/31 08:14:12;;;;;;;2.27;2.17;;;;;;;;;;5112811;28;20442;-59
2023/10/31 08:16:39;;;;;;;2.50;2.30;;;;;;;;;;5114724;28;20442;-59
2023/10/31 08:19:06;;;;;;;2.03;1.93;;;;;;;;;;5115388;28;20865;-60
2023/10/31 08:21:34;;;;;;;1.90;1.80;;;;;;;;;;5114745;27;21031;-61
2023/10/31 08:24:03;;;;;;;1.70;1.60;;;;;;;;;;5112290;28;20442;-58
2023/10/31 08:26:31;;;;;;;1.50;1.40;;;;;;;;;;5117908;27;20437;-59
2023/10/31 08:28:58;;;;;;;1.63;1.40;;;;;;;;;;5114905;28;20899;-59
2023/10/31 08:31:25;;;;;;;1.17;1.07;;;;;;;;;;5114772;28;20857;-58
2023/10/31 08:33:52;;;;;;;1.30;1.20;;;;;;;;;;5115023;28;20841;-61
2023/10/31 08:36:19;;;;;;;1.37;1.27;;;;;;;;;;5114990;28;20438;-59
2023/10/31 08:38:46;;;;;;;1.30;1.20;;;;;;;;;;5115202;28;20881;-60
2023/10/31 08:41:19;;;;;;;1.00;0.90;;;;;;;;;;5115216;28;20446;-61
2023/10/31 08:43:46;;;;;;;1.33;0.93;;;;;;;;;;5114814;28;20477;-61
2023/10/31 08:46:13;;;;;;;1.30;1.20;;;;;;;;;;5115210;28;20529;-60
2023/10/31 08:48:40;;;;;;;1.30;1.20;;;;;;;;;;5115097;28;20536;-60
2023/10/31 08:51:07;;;;;;;0.80;0.80;;;;;;;;;;5114954;28;20442;-62
2023/10/31 08:53:34;;;;;;;0.97;0.90;;;;;;;;;;5114003;28;20453;-60
2023/10/31 08:56:01;;;;;;;1.13;1.10;;;;;;;;;;5114772;28;20503;-61
2023/10/31 08:58:30;;;;;;;1.10;1.00;;;;;;;;;;5113798;28;20928;-61
2023/10/31 09:00:57;;;;;;;0.80;0.80;;;;;;;;;;5096687;28;20945;-60
2023/10/31 09:03:24;;;;;;;0.73;0.70;;;;;;;;;;5094217;28;20482;-59
2023/10/31 09:05:51;;;;;;;2.30;0.90;;;;;;;;;;5108489;28;20494;-61
2023/10/31 09:08:18;;;;;;;0.70;0.60;;;;;;;;;;5106572;28;20449;-61
2023/10/31 09:10:46;;;;;;;1.63;0.60;;;;;;;;;;5114493;28;20442;-61
2023/10/31 09:13:13;;;;;;;1.60;0.70;;;;;;;;;;5114572;28;20453;-62
2023/10/31 09:15:42;;;;;;;0.70;0.70;;;;;;;;;;5114567;28;20437;-59
2023/10/31 09:18:08;;;;;;;0.73;0.73;;;;;;;;;;5114508;28;20445;-59
2023/10/31 09:20:35;;;;;;;2.73;1.07;;;;;;;;;;5114562;28;20528;-61
2023/10/31 09:23:02;;;;;;;31.43;18.30;;;;;;;;;;5114220;28;20530;-61
2023/10/31 09:25:30;;;;;;;0.80;0.70;;;;;;;;;;5114168;28;20533;-61
2023/10/31 09:27:58;;;;;;;1.23;0.80;;;;;;;;;;5114162;28;20933;-60
2023/10/31 09:30:26;;;;;;;0.90;0.90;;;;;;;;;;5113848;28;20443;-63
2023/10/31 09:32:54;;;;;;;1.57;0.70;;;;;;;;;;5114262;28;20532;-61
2023/10/31 09:35:21;;;;;;;0.73;0.73;;;;;;;;;;5114099;28;20448;-60
2023/10/31 09:37:49;;;;;;;1.00;0.90;;;;;;;;;;5114088;28;20533;-62
2023/10/31 09:40:16;;;;;;;1.70;0.87;;;;;;;;;;5113996;28;20449;-60
2023/10/31 09:42:43;;;;;;;0.80;0.80;;;;;;;;;;5113708;28;20658;-61
2023/10/31 09:45:10;;;;;;;0.93;0.90;;;;;;;;;;5113860;28;20836;-61
2023/10/31 09:47:37;;;;;;;2.83;0.90;;;;;;;;;;5113772;28;20472;-60
2023/10/31 09:50:08;;;;;;;1.53;0.90;;;;;;;;;;5113680;28;20437;-59
2023/10/31 09:52:35;;;;;;;0.80;0.80;;;;;;;;;;5113801;28;20449;-60
2023/10/31 09:55:03;;;;;;;1.10;1.00;;;;;;;;;;5113878;28;20438;-59
2023/10/31 09:57:30;;;;;;;1.30;0.87;;;;;;;;;;5113894;28;20540;-60
2023/10/31 09:59:56;;;;;;;1.07;1.00;;;;;;;;;;5113751;28;20813;-60
2023/10/31 10:02:24;;;;;;;1.53;1.00;;;;;;;;;;5113434;28;20473;-60
2023/10/31 10:04:51;;;;;;;1.00;0.90;;;;;;;;;;5113352;28;20441;-60
2023/10/31 10:07:20;;;;;;;1.07;0.83;;;;;;;;;;5113491;28;20947;-59
2023/10/31 10:09:47;;;;;;;1.37;0.80;;;;;;;;;;5113129;28;20955;-61
2023/10/31 10:12:15;;;;;;;2.70;1.00;;;;;;;;;;5113721;28;20528;-63
2023/10/31 10:14:42;;;;;;;0.90;0.80;;;;;;;;;;5113382;28;20937;-60
2023/10/31 10:17:15;;;;;;;1.07;0.97;;;;;;;;;;5113332;28;20843;-62
2023/10/31 10:19:42;;;;;;;1.10;1.00;;;;;;;;;;5113399;28;20444;-62
2023/10/31 10:22:10;;;;;;;1.20;1.03;;;;;;;;;;5113439;28;20792;-62
2023/10/31 10:24:40;;;;;;;4.40;1.30;;;;;;;;;;5113358;28;20446;-62
2023/10/31 10:27:08;;;;;;;1.30;1.20;;;;;;;;;;5113332;28;20480;-62
2023/10/31 10:29:35;;;;;;;1.20;1.10;;;;;;;;;;5113300;28;20445;-62
2023/10/31 10:32:02;;;;;;;1.20;1.10;;;;;;;;;;5113054;28;20449;-62
2023/10/31 10:34:29;;;;;;;1.97;0.90;;;;;;;;;;5113374;28;20452;-62
2023/10/31 10:36:57;;;;;;;1.10;1.00;;;;;;;;;;5113318;28;20532;-62
2023/10/31 10:39:24;;;;;;;1.20;1.10;;;;;;;;;;5113316;28;20464;-62
2023/10/31 10:41:57;;;;;;;1.00;0.90;;;;;;;;;;5113108;28;21007;-61
2023/10/31 10:44:29;;;;;;;3.33;1.10;;;;;;;;;;5112706;28;20486;-60
2023/10/31 10:46:56;;;;;;;1.20;1.00;;;;;;;;;;5113297;28;20450;-61
2023/10/31 10:49:26;;;;;;;1.77;1.30;;;;;;;;;;5113250;28;20448;-61
2023/10/31 10:51:56;;;;;;;0.90;0.90;;;;;;;;;;5112924;28;20442;-61
2023/10/31 10:54:28;;;;;;;1.27;1.17;;;;;;;;;;5113502;28;20437;-59
2023/10/31 10:56:59;;;;;;;1.30;1.20;;;;;;;;;;5112851;28;20438;-59
2023/10/31 10:59:29;;;;;;;1.30;1.20;;;;;;;;;;5113164;28;20448;-61
2023/10/31 11:01:58;;;;;;;3.00;1.30;;;;;;;;;;5112944;28;20444;-60
2023/10/31 11:04:25;;;;;;;3.47;1.47;;;;;;;;;;5112754;28;20482;-60
2023/10/31 11:06:52;;;;;;;1.67;1.50;;;;;;;;;;5112924;28;20885;-60
2023/10/31 11:09:19;;;;;;;1.40;1.30;;;;;;;;;;5112922;28;20481;-60
2023/10/31 11:11:49;;;;;;;1.20;1.10;;;;;;;;;;5112755;28;20467;-60
2023/10/31 11:14:17;;;;;;;1.30;1.20;;;;;;;;;;5112910;28;20913;-61
2023/10/31 11:16:47;;;;;;;1.40;1.30;;;;;;;;;;5114364;28;20448;-61
2023/10/31 11:19:14;;;;;;;1.60;1.17;;;;;;;;;;5116655;28;20882;-58
2023/10/31 11:21:54;;;;;;;1.50;1.40;;;;;;;;;;5116592;28;20448;-58
2023/10/31 11:24:22;;;;;;;2.30;1.40;;;;;;;;;;5116513;28;20483;-61
2023/10/31 11:26:52;;;;;;;1.20;1.10;;;;;;;;;;5116904;28;20441;-62
2023/10/31 11:29:20;;;;;;;1.20;1.10;;;;;;;;;;5116581;28;20451;-61
2023/10/31 11:31:48;;;;;;;1.17;1.03;;;;;;;;;;5116400;28;20536;-62
2023/10/31 11:34:16;;;;;;;0.90;0.90;;;;;;;;;;5116407;28;20488;-59
2023/10/31 11:36:43;;;;;;;1.10;1.00;;;;;;;;;;5116213;28;20445;-59
2023/10/31 11:39:14;;;;;;;1.07;1.00;;;;;;;;;;5116528;28;20442;-60
2023/10/31 11:41:41;;;;;;;0.90;0.90;;;;;;;;;;5116338;28;20496;-60
2023/10/31 11:44:08;;;;;;;1.20;1.10;;;;;;;;;;5116070;28;20495;-60
2023/10/31 11:46:36;;;;;;;1.23;1.13;;;;;;;;;;5116339;28;20872;-59
2023/10/31 11:49:05;;;;;;;1.87;1.20;;;;;;;;;;5116111;28;20446;-60
2023/10/31 11:51:32;;;;;;;1.30;1.20;;;;;;;;;;5116240;28;20446;-60
2023/10/31 11:54:00;;;;;;;1.07;1.00;;;;;;;;;;5116331;28;20481;-60
2023/10/31 11:56:27;;;;;;;0.87;0.87;;;;;;;;;;5115862;28;20959;-60
2023/10/31 11:59:00;;;;;;;1.10;0.90;;;;;;;;;;5115764;28;20448;-60
2023/10/31 12:01:28;;;;;;;0.80;0.80;;;;;;;;;;5115929;28;20533;-60
2023/10/31 12:03:56;;;;;;;1.10;0.80;;;;;;;;;;5115672;28;20878;-62
2023/10/31 12:06:23;;;;;;;2.30;1.10;;;;;;;;;;5115908;28;21008;-62
2023/10/31 12:08:50;;;;;;;3.00;0.77;;;;;;;;;;5116003;28;20452;-61
2023/10/31 12:11:19;;;;;;;1.50;1.00;;;;;;;;;;5115798;28;20569;-61
2023/10/31 12:13:54;;;;;;;1.47;0.90;;;;;;;;;;5115618;28;20947;-58
2023/10/31 12:16:23;;;;;;;1.10;1.00;;;;;;;;;;5114404;28;20435;-60
2023/10/31 12:18:56;;;;;;;1.00;0.90;;;;;;;;;;5115688;28;20657;-60
2023/10/31 12:21:35;;;;;;;1.40;1.10;;;;;;;;;;5115822;28;20448;-59
2023/10/31 12:24:04;;;;;;;0.77;0.77;;;;;;;;;;5115391;28;20566;-59
2023/10/31 12:26:31;;;;;;;2.60;0.97;;;;;;;;;;5115308;28;20463;-60
2023/10/31 12:29:08;;;;;;;1.10;1.00;;;;;;;;;;5115173;28;20533;-58
2023/10/31 12:31:35;;;;;;;0.97;0.87;;;;;;;;;;5115398;28;20446;-59
2023/10/31 12:34:07;;;;;;;1.07;0.97;;;;;;;;;;5115114;28;20924;-59
2023/10/31 12:36:34;;;;;;;2.30;0.80;;;;;;;;;;5115349;27;20487;-58
2023/10/31 12:39:01;;;;;;;1.90;0.90;;;;;;;;;;5115031;28;20450;-59
2023/10/31 12:41:28;;;;;;;1.53;1.00;;;;;;;;;;5115192;28;20437;-59
2023/10/31 12:43:55;;;;;;;0.90;0.80;;;;;;;;;;5114806;28;20489;-58
2023/10/31 12:46:26;;;;;;;0.90;0.80;;;;;;;;;;5115252;28;20541;-59
2023/10/31 12:48:53;;;;;;;0.90;0.80;;;;;;;;;;5114891;28;20600;-59
2023/10/31 12:51:22;;;;;;;0.80;0.80;;;;;;;;;;5114866;28;20947;-59
2023/10/31 12:53:50;;;;;;;0.90;0.90;;;;;;;;;;5114839;28;20438;-59
2023/10/31 12:56:32;;;;;;;2.40;0.80;;;;;;;;;;5114909;28;20438;-59
2023/10/31 12:59:00;;;;;;;0.93;0.80;;;;;;;;;;5114562;28;20962;-59
2023/10/31 13:01:27;;;;;;;2.50;1.00;;;;;;;;;;5114845;28;20441;-59
2023/10/31 13:03:54;;;;;;;3.17;0.90;;;;;;;;;;5114519;28;20477;-59
2023/10/31 13:06:23;;;;;;;0.80;0.80;;;;;;;;;;5114436;28;20461;-59
2023/10/31 13:08:50;;;;;;;1.50;0.80;;;;;;;;;;5114833;28;20480;-59
2023/10/31 13:11:17;;;;;;;0.80;0.80;;;;;;;;;;5114749;28;20452;-59
2023/10/31 13:13:44;;;;;;;0.70;0.70;;;;;;;;;;5114719;28;20450;-58
2023/10/31 13:16:11;;;;;;;1.33;0.70;;;;;;;;;;5114628;28;20452;-57
2023/10/31 13:18:38;;;;;;;0.80;0.73;;;;;;;;;;5114542;28;20451;-59
2023/10/31 13:21:05;;;;;;;1.03;0.70;;;;;;;;;;5114226;28;20441;-59
2023/10/31 13:23:33;;;;;;;0.87;0.70;;;;;;;;;;5114425;28;20470;-60
2023/10/31 13:26:00;;;;;;;0.60;0.60;;;;;;;;;;5114517;28;20475;-59
2023/10/31 13:28:28;;;;;;;1.20;0.80;;;;;;;;;;5114430;28;20449;-60
2023/10/31 13:30:55;;;;;;;2.17;0.80;;;;;;;;;;5114043;28;20437;-60
2023/10/31 13:33:22;;;;;;;1.57;0.70;;;;;;;;;;5114139;28;20529;-60
2023/10/31 13:35:49;;;;;;;0.70;0.70;;;;;;;;;;5114050;28;20972;-59
2023/10/31 13:38:16;;;;;;;0.80;0.80;;;;;;;;;;5114361;28;20455;-59
2023/10/31 13:40:44;;;;;;;1.00;0.70;;;;;;;;;;5113679;28;20446;-60
2023/10/31 13:43:11;;;;;;;1.13;0.90;;;;;;;;;;5113914;28;20498;-60
2023/10/31 13:45:38;;;;;;;1.50;1.00;;;;;;;;;;5113897;28;20501;-59
2023/10/31 13:48:06;;;;;;;1.37;0.70;;;;;;;;;;5113839;28;20529;-58
2023/10/31 13:50:33;;;;;;;0.90;0.80;;;;;;;;;;5113969;28;20445;-59
2023/10/31 13:53:00;;;;;;;0.60;0.60;;;;;;;;;;5113938;28;20448;-59
2023/10/31 13:55:27;;;;;;;0.80;0.67;;;;;;;;;;5113935;28;20442;-58
2023/10/31 13:57:55;;;;;;;2.77;0.87;;;;;;;;;;5114049;28;20445;-59
2023/10/31 14:00:22;;;;;;;1.20;0.70;;;;;;;;;;5113714;28;20448;-59
2023/10/31 14:02:49;;;;;;;0.80;0.70;;;;;;;;;;5113849;28;20520;-59
2023/10/31 14:05:17;;;;;;;0.80;0.80;;;;;;;;;;5113734;28;20988;-60
2023/10/31 14:07:44;;;;;;;2.90;0.63;;;;;;;;;;5113598;28;20842;-59
2023/10/31 14:10:11;;;;;;;1.17;0.60;;;;;;;;;;5113587;28;20455;-58
2023/10/31 14:12:38;;;;;;;0.63;0.60;;;;;;;;;;5113521;28;20442;-59
2023/10/31 14:15:07;;;;;;;0.80;0.80;;;;;;;;;;5113548;28;20449;-59
2023/10/31 14:17:34;;;;;;;0.90;0.77;;;;;;;;;;5113704;28;20524;-59
2023/10/31 14:20:00;;;;;;;0.90;0.60;;;;;;;;;;5113472;28;20808;-58
2023/10/31 14:22:27;;;;;;;0.70;0.63;;;;;;;;;;5113289;28;20541;-58
2023/10/31 14:24:54;;;;;;;2.20;0.80;;;;;;;;;;5113052;28;20886;-58
2023/10/31 14:27:21;;;;;;;0.80;0.70;;;;;;;;;;5113401;28;20447;-58
2023/10/31 14:29:48;;;;;;;1.13;0.80;;;;;;;;;;5113253;28;20448;-58
2023/10/31 14:32:16;;;;;;;1.00;0.80;;;;;;;;;;5113167;28;20446;-58
2023/10/31 14:34:43;;;;;;;2.63;0.90;;;;;;;;;;5113213;28;20862;-58
2023/10/31 14:37:10;;;;;;;1.10;1.00;;;;;;;;;;5113217;28;20448;-58
2023/10/31 14:39:37;;;;;;;1.33;1.10;;;;;;;;;;5113249;28;20448;-58
2023/10/31 14:42:05;;;;;;;1.67;0.80;;;;;;;;;;5113063;28;20997;-59
2023/10/31 14:44:31;;;;;;;1.40;1.00;;;;;;;;;;5113163;28;20910;-58